Etusivu
METAR-TAF:

METAR-TAF

Lentoasemat :

Revelstoke, Brittiläinen Kolumbia, Kanada

Leveyspiiri: 50-58N, Pituuspiiri: 118-11W, korkeus merenpinnasta: 443 m

Tämänhetkinen sää

Tämä raportti tehtiin 16 minuuttia sitten, kello 17.16 UTC
Tuuli 3 kn pohjoisen/luoteesta
Lämpötila 10°C
Kosteus 93%
Ilmanpaine 1017 hPa
Näkyvyys: 14.5 km
Pilvistä 1300 ft:n korkeudessa

METAR: CYRV 211716Z AUTO 34003KT 9SM OVC013 10/09 A3002 RMK SLP177

Aika: 10:32 (17:32 UTC)


TAF: puuttuu

Säähavainnot ja -ennusteet yli 4000 lentoasemalta (METAR- ja TAF-raportit).

Käytössä olevat sääasemat on merkitty karttaan keltaisilla ja punaisilla pisteillä.

Aseta hiiri pisteen päälle nähdäksesi sääaseman nimen.

Klikkaa sitten nähdäksesi säähavainnot ja -ennusteet.

Kartan vaihtaminen: klikkaa mustalla rastilla varustettuja vihreitä pisteitä, niin voit zoomata sisään; viivalla varustettua vihreää pistettä, niin voit zoomata ulos tai vihreitä nuolia, niin pääset viereisille kartoille.


METAR-TAF: